sensor_id;sensor_type;location;lat;lon;timestamp;P1;durP1;ratioP1;P2;durP2;ratioP2
11665;SDS011;5889;51.350;6.708;2023-07-16T00:01:18;6.85;;;2.67;;
11665;SDS011;5889;51.350;6.708;2023-07-16T00:03:45;6.70;;;2.58;;
11665;SDS011;5889;51.350;6.708;2023-07-16T00:06:12;5.40;;;2.97;;
11665;SDS011;5889;51.350;6.708;2023-07-16T00:08:39;9.13;;;2.72;;
11665;SDS011;5889;51.350;6.708;2023-07-16T00:11:07;6.53;;;2.85;;
11665;SDS011;5889;51.350;6.708;2023-07-16T00:13:34;8.55;;;3.00;;
11665;SDS011;5889;51.350;6.708;2023-07-16T00:16:01;7.28;;;2.70;;
11665;SDS011;5889;51.350;6.708;2023-07-16T00:18:28;6.15;;;2.30;;
11665;SDS011;5889;51.350;6.708;2023-07-16T00:20:55;6.93;;;2.95;;
11665;SDS011;5889;51.350;6.708;2023-07-16T00:23:22;5.85;;;2.63;;
11665;SDS011;5889;51.350;6.708;2023-07-16T00:25:49;5.13;;;2.80;;
11665;SDS011;5889;51.350;6.708;2023-07-16T00:28:17;5.47;;;2.63;;
11665;SDS011;5889;51.350;6.708;2023-07-16T00:30:44;10.32;;;2.55;;
11665;SDS011;5889;51.350;6.708;2023-07-16T00:33:11;5.07;;;2.80;;
11665;SDS011;5889;51.350;6.708;2023-07-16T00:35:37;3.70;;;2.40;;
11665;SDS011;5889;51.350;6.708;2023-07-16T00:38:05;5.70;;;3.13;;
11665;SDS011;5889;51.350;6.708;2023-07-16T00:40:32;7.10;;;3.05;;
11665;SDS011;5889;51.350;6.708;2023-07-16T00:42:59;9.35;;;2.85;;
11665;SDS011;5889;51.350;6.708;2023-07-16T00:45:27;7.43;;;2.90;;
11665;SDS011;5889;51.350;6.708;2023-07-16T00:47:54;6.57;;;2.90;;
11665;SDS011;5889;51.350;6.708;2023-07-16T00:50:21;7.78;;;2.42;;
11665;SDS011;5889;51.350;6.708;2023-07-16T00:52:48;5.57;;;2.58;;
11665;SDS011;5889;51.350;6.708;2023-07-16T00:55:15;10.27;;;3.10;;
11665;SDS011;5889;51.350;6.708;2023-07-16T00:57:42;5.57;;;2.70;;
11665;SDS011;5889;51.350;6.708;2023-07-16T01:00:11;11.52;;;3.25;;
11665;SDS011;5889;51.350;6.708;2023-07-16T01:02:40;7.85;;;2.50;;
11665;SDS011;5889;51.350;6.708;2023-07-16T01:05:07;8.32;;;3.40;;
11665;SDS011;5889;51.350;6.708;2023-07-16T01:07:34;6.03;;;2.50;;
11665;SDS011;5889;51.350;6.708;2023-07-16T01:10:03;7.90;;;2.85;;
11665;SDS011;5889;51.350;6.708;2023-07-16T01:12:31;5.85;;;2.60;;
11665;SDS011;5889;51.350;6.708;2023-07-16T01:14:58;11.27;;;2.75;;
11665;SDS011;5889;51.350;6.708;2023-07-16T01:17:26;7.85;;;2.78;;
11665;SDS011;5889;51.350;6.708;2023-07-16T01:19:54;8.45;;;3.00;;
11665;SDS011;5889;51.350;6.708;2023-07-16T01:22:43;6.90;;;2.95;;
11665;SDS011;5889;51.350;6.708;2023-07-16T01:25:26;9.30;;;2.65;;
11665;SDS011;5889;51.350;6.708;2023-07-16T01:28:22;4.72;;;2.63;;
11665;SDS011;5889;51.350;6.708;2023-07-16T01:31:03;8.60;;;2.70;;
11665;SDS011;5889;51.350;6.708;2023-07-16T01:33:30;6.53;;;2.85;;
11665;SDS011;5889;51.350;6.708;2023-07-16T01:35:59;6.63;;;2.95;;
11665;SDS011;5889;51.350;6.708;2023-07-16T01:38:26;5.50;;;2.50;;
11665;SDS011;5889;51.350;6.708;2023-07-16T01:40:53;8.60;;;2.70;;
11665;SDS011;5889;51.350;6.708;2023-07-16T01:43:20;7.30;;;2.85;;
11665;SDS011;5889;51.350;6.708;2023-07-16T01:45:47;7.68;;;2.80;;
11665;SDS011;5889;51.350;6.708;2023-07-16T01:48:21;13.65;;;2.90;;
11665;SDS011;5889;51.350;6.708;2023-07-16T01:50:55;11.75;;;3.05;;
11665;SDS011;5889;51.350;6.708;2023-07-16T01:53:22;8.65;;;3.15;;
11665;SDS011;5889;51.350;6.708;2023-07-16T01:55:49;6.82;;;3.10;;
11665;SDS011;5889;51.350;6.708;2023-07-16T01:58:16;8.50;;;3.13;;
11665;SDS011;5889;51.350;6.708;2023-07-16T02:00:43;8.25;;;3.40;;
11665;SDS011;5889;51.350;6.708;2023-07-16T02:03:10;4.07;;;2.75;;
11665;SDS011;5889;51.350;6.708;2023-07-16T02:05:39;8.90;;;3.17;;
11665;SDS011;5889;51.350;6.708;2023-07-16T02:08:06;7.70;;;2.78;;
11665;SDS011;5889;51.350;6.708;2023-07-16T02:10:33;7.78;;;3.20;;
11665;SDS011;5889;51.350;6.708;2023-07-16T02:13:00;4.65;;;2.92;;
11665;SDS011;5889;51.350;6.708;2023-07-16T02:15:26;6.13;;;2.60;;
11665;SDS011;5889;51.350;6.708;2023-07-16T02:17:53;9.50;;;3.03;;
11665;SDS011;5889;51.350;6.708;2023-07-16T02:20:20;8.13;;;3.00;;
11665;SDS011;5889;51.350;6.708;2023-07-16T02:22:49;6.18;;;2.80;;
11665;SDS011;5889;51.350;6.708;2023-07-16T02:25:16;5.57;;;3.03;;
11665;SDS011;5889;51.350;6.708;2023-07-16T02:27:42;5.50;;;2.80;;
11665;SDS011;5889;51.350;6.708;2023-07-16T02:30:09;7.43;;;2.95;;
11665;SDS011;5889;51.350;6.708;2023-07-16T02:32:37;6.97;;;3.10;;
11665;SDS011;5889;51.350;6.708;2023-07-16T02:35:04;13.15;;;3.28;;
11665;SDS011;5889;51.350;6.708;2023-07-16T02:37:31;11.02;;;3.47;;
11665;SDS011;5889;51.350;6.708;2023-07-16T02:40:00;10.20;;;3.20;;
11665;SDS011;5889;51.350;6.708;2023-07-16T02:42:27;8.13;;;3.22;;
11665;SDS011;5889;51.350;6.708;2023-07-16T02:44:55;8.38;;;3.17;;
11665;SDS011;5889;51.350;6.708;2023-07-16T02:47:22;12.00;;;3.10;;
11665;SDS011;5889;51.350;6.708;2023-07-16T02:49:50;7.97;;;2.78;;
11665;SDS011;5889;51.350;6.708;2023-07-16T02:52:18;6.47;;;2.70;;
11665;SDS011;5889;51.350;6.708;2023-07-16T02:54:45;6.60;;;2.97;;
11665;SDS011;5889;51.350;6.708;2023-07-16T02:57:13;8.70;;;2.83;;
11665;SDS011;5889;51.350;6.708;2023-07-16T02:59:40;8.80;;;2.75;;
11665;SDS011;5889;51.350;6.708;2023-07-16T03:02:07;7.05;;;2.50;;
11665;SDS011;5889;51.350;6.708;2023-07-16T03:04:34;8.23;;;2.40;;
11665;SDS011;5889;51.350;6.708;2023-07-16T03:07:01;11.55;;;2.58;;
11665;SDS011;5889;51.350;6.708;2023-07-16T03:09:28;11.85;;;2.83;;
11665;SDS011;5889;51.350;6.708;2023-07-16T03:11:55;10.85;;;2.70;;
11665;SDS011;5889;51.350;6.708;2023-07-16T03:14:23;7.10;;;3.13;;
11665;SDS011;5889;51.350;6.708;2023-07-16T03:16:50;7.18;;;2.30;;
11665;SDS011;5889;51.350;6.708;2023-07-16T03:19:17;6.93;;;2.00;;
11665;SDS011;5889;51.350;6.708;2023-07-16T03:21:44;9.77;;;2.40;;
11665;SDS011;5889;51.350;6.708;2023-07-16T03:24:11;12.52;;;2.65;;
11665;SDS011;5889;51.350;6.708;2023-07-16T03:26:38;6.28;;;2.25;;
11665;SDS011;5889;51.350;6.708;2023-07-16T03:29:05;9.45;;;2.00;;
11665;SDS011;5889;51.350;6.708;2023-07-16T03:31:33;8.60;;;2.83;;
11665;SDS011;5889;51.350;6.708;2023-07-16T03:34:00;7.83;;;2.47;;
11665;SDS011;5889;51.350;6.708;2023-07-16T03:36:27;5.75;;;2.38;;
11665;SDS011;5889;51.350;6.708;2023-07-16T03:38:54;6.73;;;2.33;;
11665;SDS011;5889;51.350;6.708;2023-07-16T03:41:21;6.53;;;2.33;;
11665;SDS011;5889;51.350;6.708;2023-07-16T03:43:48;10.18;;;2.45;;
11665;SDS011;5889;51.350;6.708;2023-07-16T03:46:14;10.10;;;2.65;;
11665;SDS011;5889;51.350;6.708;2023-07-16T03:48:43;10.83;;;2.73;;
11665;SDS011;5889;51.350;6.708;2023-07-16T03:51:10;9.77;;;3.10;;
11665;SDS011;5889;51.350;6.708;2023-07-16T03:53:37;10.40;;;2.77;;
11665;SDS011;5889;51.350;6.708;2023-07-16T03:56:04;10.73;;;2.85;;
11665;SDS011;5889;51.350;6.708;2023-07-16T03:58:31;8.47;;;2.57;;
11665;SDS011;5889;51.350;6.708;2023-07-16T04:00:58;6.80;;;2.30;;
11665;SDS011;5889;51.350;6.708;2023-07-16T04:03:25;6.90;;;2.65;;
11665;SDS011;5889;51.350;6.708;2023-07-16T04:05:53;6.33;;;2.27;;
11665;SDS011;5889;51.350;6.708;2023-07-16T04:08:28;9.10;;;2.30;;
11665;SDS011;5889;51.350;6.708;2023-07-16T04:10:54;8.20;;;2.40;;
11665;SDS011;5889;51.350;6.708;2023-07-16T04:13:24;5.77;;;2.47;;
11665;SDS011;5889;51.350;6.708;2023-07-16T04:15:51;8.53;;;2.97;;
11665;SDS011;5889;51.350;6.708;2023-07-16T04:18:19;9.43;;;2.80;;
11665;SDS011;5889;51.350;6.708;2023-07-16T04:20:47;4.97;;;2.33;;
11665;SDS011;5889;51.350;6.708;2023-07-16T04:23:15;5.65;;;2.65;;
11665;SDS011;5889;51.350;6.708;2023-07-16T04:25:42;9.18;;;2.25;;
11665;SDS011;5889;51.350;6.708;2023-07-16T04:28:10;6.17;;;2.63;;
11665;SDS011;5889;51.350;6.708;2023-07-16T04:30:37;9.25;;;2.38;;
11665;SDS011;5889;51.350;6.708;2023-07-16T04:33:04;6.93;;;2.33;;
11665;SDS011;5889;51.350;6.708;2023-07-16T04:35:32;8.93;;;2.40;;
11665;SDS011;5889;51.350;6.708;2023-07-16T04:37:59;6.40;;;2.27;;
11665;SDS011;5889;51.350;6.708;2023-07-16T04:40:28;6.20;;;2.47;;
11665;SDS011;5889;51.350;6.708;2023-07-16T04:42:55;4.80;;;2.40;;
11665;SDS011;5889;51.350;6.708;2023-07-16T04:45:22;6.20;;;2.50;;
11665;SDS011;5889;51.350;6.708;2023-07-16T04:47:49;8.40;;;2.72;;
11665;SDS011;5889;51.350;6.708;2023-07-16T04:50:16;5.88;;;2.60;;
11665;SDS011;5889;51.350;6.708;2023-07-16T04:52:43;7.97;;;3.30;;
11665;SDS011;5889;51.350;6.708;2023-07-16T04:55:10;7.60;;;2.40;;
11665;SDS011;5889;51.350;6.708;2023-07-16T04:57:39;8.00;;;2.53;;
11665;SDS011;5889;51.350;6.708;2023-07-16T05:00:06;6.00;;;2.67;;
11665;SDS011;5889;51.350;6.708;2023-07-16T05:02:34;8.50;;;2.70;;
11665;SDS011;5889;51.350;6.708;2023-07-16T05:05:01;8.18;;;2.70;;
11665;SDS011;5889;51.350;6.708;2023-07-16T05:07:28;8.07;;;2.78;;
11665;SDS011;5889;51.350;6.708;2023-07-16T05:09:55;5.72;;;2.30;;
11665;SDS011;5889;51.350;6.708;2023-07-16T05:12:22;5.18;;;3.08;;
11665;SDS011;5889;51.350;6.708;2023-07-16T05:14:51;10.35;;;2.53;;
11665;SDS011;5889;51.350;6.708;2023-07-16T05:17:18;6.75;;;2.40;;
11665;SDS011;5889;51.350;6.708;2023-07-16T05:19:44;6.60;;;2.80;;
11665;SDS011;5889;51.350;6.708;2023-07-16T05:22:11;6.65;;;2.80;;
11665;SDS011;5889;51.350;6.708;2023-07-16T05:24:38;6.50;;;2.65;;
11665;SDS011;5889;51.350;6.708;2023-07-16T05:27:05;5.38;;;2.70;;
11665;SDS011;5889;51.350;6.708;2023-07-16T05:29:32;7.47;;;2.97;;
11665;SDS011;5889;51.350;6.708;2023-07-16T05:32:00;10.30;;;2.65;;
11665;SDS011;5889;51.350;6.708;2023-07-16T05:34:28;10.32;;;3.13;;
11665;SDS011;5889;51.350;6.708;2023-07-16T05:36:55;10.77;;;2.83;;
11665;SDS011;5889;51.350;6.708;2023-07-16T05:39:22;11.85;;;3.33;;
11665;SDS011;5889;51.350;6.708;2023-07-16T05:41:49;6.82;;;3.00;;
11665;SDS011;5889;51.350;6.708;2023-07-16T05:44:16;7.70;;;2.80;;
11665;SDS011;5889;51.350;6.708;2023-07-16T05:46:43;8.13;;;3.35;;
11665;SDS011;5889;51.350;6.708;2023-07-16T05:49:11;5.75;;;2.60;;
11665;SDS011;5889;51.350;6.708;2023-07-16T05:51:39;6.43;;;3.00;;
11665;SDS011;5889;51.350;6.708;2023-07-16T05:56:58;7.22;;;3.22;;
11665;SDS011;5889;51.350;6.708;2023-07-16T05:59:25;10.35;;;3.47;;
11665;SDS011;5889;51.350;6.708;2023-07-16T06:01:52;9.25;;;3.60;;
11665;SDS011;5889;51.350;6.708;2023-07-16T06:04:28;16.02;;;4.35;;
11665;SDS011;5889;51.350;6.708;2023-07-16T06:06:56;11.35;;;4.22;;
11665;SDS011;5889;51.350;6.708;2023-07-16T06:09:28;7.68;;;3.47;;
11665;SDS011;5889;51.350;6.708;2023-07-16T06:11:55;9.30;;;3.88;;
11665;SDS011;5889;51.350;6.708;2023-07-16T06:14:22;10.82;;;3.70;;
11665;SDS011;5889;51.350;6.708;2023-07-16T06:16:50;9.55;;;3.70;;
11665;SDS011;5889;51.350;6.708;2023-07-16T06:19:17;6.28;;;3.85;;
11665;SDS011;5889;51.350;6.708;2023-07-16T06:21:46;10.43;;;4.18;;
11665;SDS011;5889;51.350;6.708;2023-07-16T06:24:12;9.15;;;4.88;;
11665;SDS011;5889;51.350;6.708;2023-07-16T06:26:39;10.38;;;3.45;;
11665;SDS011;5889;51.350;6.708;2023-07-16T06:29:06;8.25;;;4.00;;
11665;SDS011;5889;51.350;6.708;2023-07-16T06:31:34;7.13;;;3.97;;
11665;SDS011;5889;51.350;6.708;2023-07-16T06:34:01;7.70;;;3.95;;
11665;SDS011;5889;51.350;6.708;2023-07-16T06:36:28;9.60;;;3.80;;
11665;SDS011;5889;51.350;6.708;2023-07-16T06:38:56;7.50;;;3.97;;
11665;SDS011;5889;51.350;6.708;2023-07-16T06:41:25;9.30;;;4.70;;
11665;SDS011;5889;51.350;6.708;2023-07-16T06:43:52;9.57;;;4.50;;
11665;SDS011;5889;51.350;6.708;2023-07-16T06:46:19;9.13;;;4.50;;
11665;SDS011;5889;51.350;6.708;2023-07-16T06:48:46;9.07;;;4.40;;
11665;SDS011;5889;51.350;6.708;2023-07-16T06:51:13;9.75;;;3.92;;
11665;SDS011;5889;51.350;6.708;2023-07-16T06:53:40;9.02;;;4.05;;
11665;SDS011;5889;51.350;6.708;2023-07-16T06:56:09;11.45;;;4.25;;
11665;SDS011;5889;51.350;6.708;2023-07-16T06:58:36;11.50;;;4.22;;
11665;SDS011;5889;51.350;6.708;2023-07-16T07:01:03;13.60;;;4.32;;
11665;SDS011;5889;51.350;6.708;2023-07-16T07:03:36;9.82;;;4.38;;
11665;SDS011;5889;51.350;6.708;2023-07-16T07:06:03;12.45;;;4.63;;
11665;SDS011;5889;51.350;6.708;2023-07-16T07:08:30;12.15;;;4.80;;
11665;SDS011;5889;51.350;6.708;2023-07-16T07:10:57;9.45;;;4.70;;
11665;SDS011;5889;51.350;6.708;2023-07-16T07:13:26;10.55;;;4.50;;
11665;SDS011;5889;51.350;6.708;2023-07-16T07:15:54;8.43;;;4.30;;
11665;SDS011;5889;51.350;6.708;2023-07-16T07:18:21;13.88;;;4.78;;
11665;SDS011;5889;51.350;6.708;2023-07-16T07:20:49;8.77;;;4.35;;
11665;SDS011;5889;51.350;6.708;2023-07-16T07:23:18;10.88;;;4.57;;
11665;SDS011;5889;51.350;6.708;2023-07-16T07:25:48;9.88;;;4.60;;
11665;SDS011;5889;51.350;6.708;2023-07-16T07:28:16;9.75;;;5.43;;
11665;SDS011;5889;51.350;6.708;2023-07-16T07:30:44;9.85;;;5.03;;
11665;SDS011;5889;51.350;6.708;2023-07-16T07:33:12;9.90;;;4.88;;
11665;SDS011;5889;51.350;6.708;2023-07-16T07:35:39;10.10;;;4.53;;
11665;SDS011;5889;51.350;6.708;2023-07-16T07:38:06;10.82;;;4.40;;
11665;SDS011;5889;51.350;6.708;2023-07-16T07:40:33;10.20;;;4.22;;
11665;SDS011;5889;51.350;6.708;2023-07-16T07:43:00;8.85;;;4.95;;
11665;SDS011;5889;51.350;6.708;2023-07-16T07:45:27;10.10;;;4.63;;
11665;SDS011;5889;51.350;6.708;2023-07-16T07:47:55;9.75;;;4.53;;
11665;SDS011;5889;51.350;6.708;2023-07-16T07:50:22;10.50;;;4.90;;
11665;SDS011;5889;51.350;6.708;2023-07-16T07:52:50;11.27;;;5.05;;
11665;SDS011;5889;51.350;6.708;2023-07-16T07:55:19;10.57;;;4.50;;
11665;SDS011;5889;51.350;6.708;2023-07-16T07:57:46;14.13;;;4.97;;
11665;SDS011;5889;51.350;6.708;2023-07-16T08:00:19;9.05;;;4.88;;
11665;SDS011;5889;51.350;6.708;2023-07-16T08:02:49;9.13;;;4.43;;
11665;SDS011;5889;51.350;6.708;2023-07-16T08:05:18;9.45;;;4.93;;
11665;SDS011;5889;51.350;6.708;2023-07-16T08:07:45;11.85;;;5.40;;
11665;SDS011;5889;51.350;6.708;2023-07-16T08:10:12;8.55;;;4.68;;
11665;SDS011;5889;51.350;6.708;2023-07-16T08:12:40;8.77;;;4.40;;
11665;SDS011;5889;51.350;6.708;2023-07-16T08:15:08;12.27;;;4.53;;
11665;SDS011;5889;51.350;6.708;2023-07-16T08:17:39;9.82;;;4.68;;
11665;SDS011;5889;51.350;6.708;2023-07-16T08:20:06;9.02;;;4.07;;
11665;SDS011;5889;51.350;6.708;2023-07-16T08:22:36;11.57;;;5.00;;
11665;SDS011;5889;51.350;6.708;2023-07-16T08:25:03;9.88;;;4.28;;
11665;SDS011;5889;51.350;6.708;2023-07-16T08:27:30;9.30;;;4.65;;
11665;SDS011;5889;51.350;6.708;2023-07-16T08:29:57;10.45;;;4.45;;
11665;SDS011;5889;51.350;6.708;2023-07-16T08:32:25;8.15;;;4.20;;
11665;SDS011;5889;51.350;6.708;2023-07-16T08:34:51;11.63;;;4.20;;
11665;SDS011;5889;51.350;6.708;2023-07-16T08:37:18;10.25;;;4.45;;
11665;SDS011;5889;51.350;6.708;2023-07-16T08:39:51;9.82;;;4.47;;
11665;SDS011;5889;51.350;6.708;2023-07-16T08:42:18;11.05;;;4.85;;
11665;SDS011;5889;51.350;6.708;2023-07-16T08:44:46;7.40;;;4.40;;
11665;SDS011;5889;51.350;6.708;2023-07-16T08:47:15;12.68;;;4.63;;
11665;SDS011;5889;51.350;6.708;2023-07-16T08:49:47;10.15;;;4.63;;
11665;SDS011;5889;51.350;6.708;2023-07-16T08:52:20;10.38;;;4.80;;
11665;SDS011;5889;51.350;6.708;2023-07-16T08:54:49;9.02;;;3.97;;
11665;SDS011;5889;51.350;6.708;2023-07-16T08:57:16;11.57;;;4.07;;
11665;SDS011;5889;51.350;6.708;2023-07-16T08:59:46;11.10;;;4.63;;
11665;SDS011;5889;51.350;6.708;2023-07-16T09:02:15;9.38;;;4.15;;
11665;SDS011;5889;51.350;6.708;2023-07-16T09:04:43;7.47;;;4.13;;
11665;SDS011;5889;51.350;6.708;2023-07-16T09:07:10;7.45;;;4.28;;
11665;SDS011;5889;51.350;6.708;2023-07-16T09:09:37;7.90;;;3.80;;
11665;SDS011;5889;51.350;6.708;2023-07-16T09:12:06;10.00;;;3.97;;
11665;SDS011;5889;51.350;6.708;2023-07-16T09:14:37;8.32;;;3.67;;
11665;SDS011;5889;51.350;6.708;2023-07-16T09:17:04;9.25;;;4.72;;
11665;SDS011;5889;51.350;6.708;2023-07-16T09:19:31;7.82;;;3.63;;
11665;SDS011;5889;51.350;6.708;2023-07-16T09:21:59;7.13;;;4.10;;
11665;SDS011;5889;51.350;6.708;2023-07-16T09:24:26;10.68;;;4.50;;
11665;SDS011;5889;51.350;6.708;2023-07-16T09:26:53;8.75;;;4.32;;
11665;SDS011;5889;51.350;6.708;2023-07-16T09:29:24;11.05;;;4.50;;
11665;SDS011;5889;51.350;6.708;2023-07-16T09:31:53;8.80;;;4.63;;
11665;SDS011;5889;51.350;6.708;2023-07-16T09:34:20;8.25;;;4.28;;
11665;SDS011;5889;51.350;6.708;2023-07-16T09:36:47;7.28;;;4.03;;
11665;SDS011;5889;51.350;6.708;2023-07-16T09:39:15;7.38;;;3.97;;
11665;SDS011;5889;51.350;6.708;2023-07-16T09:41:43;9.60;;;4.25;;
11665;SDS011;5889;51.350;6.708;2023-07-16T09:44:10;7.15;;;4.03;;
11665;SDS011;5889;51.350;6.708;2023-07-16T09:46:39;8.82;;;4.55;;
11665;SDS011;5889;51.350;6.708;2023-07-16T09:49:06;7.40;;;3.60;;
11665;SDS011;5889;51.350;6.708;2023-07-16T09:51:34;6.88;;;3.97;;
11665;SDS011;5889;51.350;6.708;2023-07-16T09:54:02;5.97;;;3.58;;
11665;SDS011;5889;51.350;6.708;2023-07-16T09:56:31;8.18;;;4.30;;
11665;SDS011;5889;51.350;6.708;2023-07-16T09:59:02;11.38;;;3.38;;
11665;SDS011;5889;51.350;6.708;2023-07-16T10:01:34;7.13;;;3.85;;
11665;SDS011;5889;51.350;6.708;2023-07-16T10:04:11;6.75;;;3.72;;
11665;SDS011;5889;51.350;6.708;2023-07-16T10:06:48;7.47;;;3.75;;
11665;SDS011;5889;51.350;6.708;2023-07-16T10:09:30;7.63;;;3.88;;
11665;SDS011;5889;51.350;6.708;2023-07-16T10:12:06;11.35;;;4.30;;
11665;SDS011;5889;51.350;6.708;2023-07-16T10:14:38;6.95;;;4.20;;
11665;SDS011;5889;51.350;6.708;2023-07-16T10:17:06;8.98;;;4.10;;
11665;SDS011;5889;51.350;6.708;2023-07-16T10:19:35;6.68;;;3.92;;
11665;SDS011;5889;51.350;6.708;2023-07-16T10:22:19;9.13;;;3.92;;
11665;SDS011;5889;51.350;6.708;2023-07-16T10:24:56;9.63;;;4.35;;
11665;SDS011;5889;51.350;6.708;2023-07-16T10:27:27;6.13;;;3.97;;
11665;SDS011;5889;51.350;6.708;2023-07-16T10:29:54;6.78;;;3.47;;
11665;SDS011;5889;51.350;6.708;2023-07-16T10:32:23;7.63;;;3.72;;
11665;SDS011;5889;51.350;6.708;2023-07-16T10:34:55;6.75;;;4.10;;
11665;SDS011;5889;51.350;6.708;2023-07-16T10:37:22;6.35;;;3.70;;
11665;SDS011;5889;51.350;6.708;2023-07-16T10:39:50;7.65;;;3.88;;
11665;SDS011;5889;51.350;6.708;2023-07-16T10:42:18;6.85;;;4.07;;
11665;SDS011;5889;51.350;6.708;2023-07-16T10:44:48;6.95;;;3.65;;
11665;SDS011;5889;51.350;6.708;2023-07-16T10:47:20;10.45;;;3.75;;
11665;SDS011;5889;51.350;6.708;2023-07-16T10:49:48;6.90;;;3.50;;
11665;SDS011;5889;51.350;6.708;2023-07-16T10:52:18;6.93;;;4.05;;
11665;SDS011;5889;51.350;6.708;2023-07-16T10:54:46;7.60;;;3.78;;
11665;SDS011;5889;51.350;6.708;2023-07-16T10:57:13;8.57;;;4.43;;
11665;SDS011;5889;51.350;6.708;2023-07-16T10:59:42;8.02;;;3.83;;
11665;SDS011;5889;51.350;6.708;2023-07-16T11:02:11;6.68;;;3.45;;
11665;SDS011;5889;51.350;6.708;2023-07-16T11:04:39;6.45;;;3.25;;
11665;SDS011;5889;51.350;6.708;2023-07-16T11:07:06;6.72;;;3.75;;
11665;SDS011;5889;51.350;6.708;2023-07-16T11:09:39;7.07;;;3.75;;
11665;SDS011;5889;51.350;6.708;2023-07-16T11:12:08;7.28;;;3.90;;
11665;SDS011;5889;51.350;6.708;2023-07-16T11:14:35;7.82;;;3.60;;
11665;SDS011;5889;51.350;6.708;2023-07-16T11:17:06;8.05;;;3.47;;
11665;SDS011;5889;51.350;6.708;2023-07-16T11:19:34;5.07;;;3.58;;
11665;SDS011;5889;51.350;6.708;2023-07-16T11:22:03;7.60;;;3.08;;
11665;SDS011;5889;51.350;6.708;2023-07-16T11:24:39;7.20;;;3.53;;
11665;SDS011;5889;51.350;6.708;2023-07-16T11:27:12;6.80;;;3.40;;
11665;SDS011;5889;51.350;6.708;2023-07-16T11:29:40;8.90;;;3.35;;
11665;SDS011;5889;51.350;6.708;2023-07-16T11:32:11;7.85;;;3.30;;
11665;SDS011;5889;51.350;6.708;2023-07-16T11:34:51;5.63;;;3.30;;
11665;SDS011;5889;51.350;6.708;2023-07-16T11:37:18;5.80;;;3.50;;
11665;SDS011;5889;51.350;6.708;2023-07-16T11:39:47;6.15;;;3.33;;
11665;SDS011;5889;51.350;6.708;2023-07-16T11:42:14;4.93;;;3.28;;
11665;SDS011;5889;51.350;6.708;2023-07-16T11:44:48;5.90;;;3.55;;
11665;SDS011;5889;51.350;6.708;2023-07-16T11:47:15;6.40;;;3.55;;
11665;SDS011;5889;51.350;6.708;2023-07-16T11:49:42;6.55;;;3.40;;
11665;SDS011;5889;51.350;6.708;2023-07-16T11:52:09;9.10;;;3.55;;
11665;SDS011;5889;51.350;6.708;2023-07-16T11:54:36;5.20;;;3.05;;
11665;SDS011;5889;51.350;6.708;2023-07-16T11:57:05;5.97;;;3.22;;
11665;SDS011;5889;51.350;6.708;2023-07-16T11:59:32;6.03;;;3.45;;
11665;SDS011;5889;51.350;6.708;2023-07-16T12:01:59;7.80;;;3.50;;
11665;SDS011;5889;51.350;6.708;2023-07-16T12:04:26;7.25;;;3.28;;
11665;SDS011;5889;51.350;6.708;2023-07-16T12:06:53;7.15;;;3.13;;
11665;SDS011;5889;51.350;6.708;2023-07-16T12:09:20;8.75;;;3.58;;
11665;SDS011;5889;51.350;6.708;2023-07-16T12:11:47;5.22;;;3.25;;
11665;SDS011;5889;51.350;6.708;2023-07-16T12:14:19;5.60;;;3.60;;
11665;SDS011;5889;51.350;6.708;2023-07-16T12:16:45;7.13;;;3.72;;
11665;SDS011;5889;51.350;6.708;2023-07-16T12:19:12;6.85;;;3.38;;
11665;SDS011;5889;51.350;6.708;2023-07-16T12:21:40;4.80;;;2.85;;
11665;SDS011;5889;51.350;6.708;2023-07-16T12:24:07;9.80;;;3.60;;
11665;SDS011;5889;51.350;6.708;2023-07-16T12:26:34;6.30;;;3.10;;
11665;SDS011;5889;51.350;6.708;2023-07-16T12:29:01;6.05;;;3.47;;
11665;SDS011;5889;51.350;6.708;2023-07-16T12:31:30;6.28;;;3.40;;
11665;SDS011;5889;51.350;6.708;2023-07-16T12:33:57;4.63;;;3.40;;
11665;SDS011;5889;51.350;6.708;2023-07-16T12:36:25;6.70;;;3.45;;
11665;SDS011;5889;51.350;6.708;2023-07-16T12:38:52;4.80;;;3.47;;
11665;SDS011;5889;51.350;6.708;2023-07-16T12:41:19;5.40;;;3.13;;
11665;SDS011;5889;51.350;6.708;2023-07-16T12:43:46;5.90;;;3.40;;
11665;SDS011;5889;51.350;6.708;2023-07-16T12:46:13;5.90;;;3.40;;
11665;SDS011;5889;51.350;6.708;2023-07-16T12:48:45;4.38;;;3.33;;
11665;SDS011;5889;51.350;6.708;2023-07-16T12:51:12;6.43;;;3.30;;
11665;SDS011;5889;51.350;6.708;2023-07-16T12:53:42;5.32;;;3.38;;
11665;SDS011;5889;51.350;6.708;2023-07-16T12:57:47;7.28;;;3.42;;
11665;SDS011;5889;51.350;6.708;2023-07-16T12:59:31;5.28;;;3.50;;
11665;SDS011;5889;51.350;6.708;2023-07-16T13:02:00;6.60;;;3.33;;
11665;SDS011;5889;51.350;6.708;2023-07-16T13:04:29;4.60;;;3.08;;
11665;SDS011;5889;51.350;6.708;2023-07-16T13:06:58;7.03;;;3.45;;
11665;SDS011;5889;51.350;6.708;2023-07-16T13:09:30;5.63;;;3.53;;
11665;SDS011;5889;51.350;6.708;2023-07-16T13:11:59;6.53;;;3.28;;
11665;SDS011;5889;51.350;6.708;2023-07-16T13:18:09;8.90;;;3.50;;
11665;SDS011;5889;51.350;6.708;2023-07-16T13:20:39;6.78;;;3.60;;
11665;SDS011;5889;51.350;6.708;2023-07-16T13:23:06;6.68;;;3.13;;
11665;SDS011;5889;51.350;6.708;2023-07-16T13:25:34;5.28;;;3.00;;
11665;SDS011;5889;51.350;6.708;2023-07-16T13:28:02;7.47;;;3.13;;
11665;SDS011;5889;51.350;6.708;2023-07-16T13:30:29;7.07;;;3.15;;
11665;SDS011;5889;51.350;6.708;2023-07-16T13:32:56;5.00;;;2.85;;
11665;SDS011;5889;51.350;6.708;2023-07-16T13:35:23;5.53;;;2.78;;
11665;SDS011;5889;51.350;6.708;2023-07-16T13:37:51;5.00;;;3.00;;
11665;SDS011;5889;51.350;6.708;2023-07-16T13:40:18;4.55;;;2.80;;
11665;SDS011;5889;51.350;6.708;2023-07-16T13:42:45;4.93;;;2.90;;
11665;SDS011;5889;51.350;6.708;2023-07-16T13:45:12;7.32;;;2.80;;
11665;SDS011;5889;51.350;6.708;2023-07-16T13:47:40;7.35;;;2.97;;
11665;SDS011;5889;51.350;6.708;2023-07-16T13:50:09;5.90;;;2.70;;
11665;SDS011;5889;51.350;6.708;2023-07-16T13:52:36;6.10;;;2.83;;
11665;SDS011;5889;51.350;6.708;2023-07-16T13:55:05;5.82;;;3.00;;
11665;SDS011;5889;51.350;6.708;2023-07-16T13:57:32;5.53;;;2.83;;
11665;SDS011;5889;51.350;6.708;2023-07-16T13:59:59;3.53;;;2.33;;
11665;SDS011;5889;51.350;6.708;2023-07-16T14:02:26;6.15;;;2.38;;
11665;SDS011;5889;51.350;6.708;2023-07-16T14:04:54;3.65;;;2.58;;
11665;SDS011;5889;51.350;6.708;2023-07-16T14:07:21;3.17;;;2.35;;
11665;SDS011;5889;51.350;6.708;2023-07-16T14:09:48;4.38;;;2.53;;
11665;SDS011;5889;51.350;6.708;2023-07-16T14:12:16;3.88;;;2.55;;
11665;SDS011;5889;51.350;6.708;2023-07-16T14:14:43;5.68;;;2.90;;
11665;SDS011;5889;51.350;6.708;2023-07-16T14:17:10;2.55;;;2.00;;
11665;SDS011;5889;51.350;6.708;2023-07-16T14:19:37;5.55;;;2.67;;
11665;SDS011;5889;51.350;6.708;2023-07-16T14:22:04;4.07;;;2.65;;
11665;SDS011;5889;51.350;6.708;2023-07-16T14:24:31;4.05;;;2.25;;
11665;SDS011;5889;51.350;6.708;2023-07-16T14:26:58;4.18;;;2.45;;
11665;SDS011;5889;51.350;6.708;2023-07-16T14:29:28;4.07;;;2.17;;
11665;SDS011;5889;51.350;6.708;2023-07-16T14:31:55;4.38;;;2.35;;
11665;SDS011;5889;51.350;6.708;2023-07-16T14:34:22;5.10;;;2.60;;
11665;SDS011;5889;51.350;6.708;2023-07-16T14:36:49;3.90;;;2.38;;
11665;SDS011;5889;51.350;6.708;2023-07-16T14:39:16;4.40;;;2.30;;
11665;SDS011;5889;51.350;6.708;2023-07-16T14:41:43;4.43;;;2.95;;
11665;SDS011;5889;51.350;6.708;2023-07-16T14:44:10;4.10;;;2.30;;
11665;SDS011;5889;51.350;6.708;2023-07-16T14:46:38;4.13;;;2.78;;
11665;SDS011;5889;51.350;6.708;2023-07-16T14:49:05;6.03;;;2.65;;
11665;SDS011;5889;51.350;6.708;2023-07-16T14:51:32;4.55;;;2.72;;
11665;SDS011;5889;51.350;6.708;2023-07-16T14:54:04;5.95;;;3.00;;
11665;SDS011;5889;51.350;6.708;2023-07-16T14:56:31;4.43;;;2.90;;
11665;SDS011;5889;51.350;6.708;2023-07-16T14:58:58;5.68;;;2.85;;
11665;SDS011;5889;51.350;6.708;2023-07-16T15:01:25;4.90;;;2.63;;
11665;SDS011;5889;51.350;6.708;2023-07-16T15:03:54;4.28;;;2.60;;
11665;SDS011;5889;51.350;6.708;2023-07-16T15:06:21;4.05;;;2.72;;
11665;SDS011;5889;51.350;6.708;2023-07-16T15:08:49;6.47;;;2.67;;
11665;SDS011;5889;51.350;6.708;2023-07-16T15:11:16;9.45;;;3.20;;